KROA/ROA METAR and TAF weather

Enter ICAO airport designator
Station Type Date Time Source
KROA METAR 2021/09/24 05:54 UTC NOAA

KROA 240554Z 00000KT 10SM CLR 10/08 A3009 RMK AO2 SLP184 T01000078 10156 20094 53002


Station Type Date Time Source
KROA Decoded METAR 2021/09/24 05:54 UTC NOAA

ROANOKE REGIONAL AIRPORT, VA, United States (KROA) 37-19N 079-58W 362M
Sep 24, 2021 - 01:54 AM EDT / 2021.09.24 0554 UTC
Wind: Calm:0
Visibility: 10 mile(s):0
Sky conditions: clear
Temperature: 50.0 F (10.0 C)
Dew Point: 46.0 F (7.8 C)
Relative Humidity: 86%
Pressure (altimeter): 30.09 in. Hg (1018 hPa)
Pressure tendency: 0.01 inches (0.2 hPa) higher than three hours ago
ob: KROA 240554Z 00000KT 10SM CLR 10/08 A3009 RMK AO2 SLP184 T01000078 10156 20094 53002
cycle: 6

Station Type Date Time Source
KROA TAF 2021/09/24 06:48 UTC NOAA

TAF KROA 240546Z 2406/2506 34007KT P6SM SKC
FM241400 01006KT P6SM SKC

Example: see airport list